createdAt,value
2018-05-10T00:01:25.674Z,24.52
2018-05-10T00:03:53.251Z,25.17
2018-05-10T00:06:20.858Z,21.98
2018-05-10T00:08:48.453Z,23.17
2018-05-10T00:11:16.872Z,25.65
2018-05-10T00:13:44.496Z,19.52
2018-05-10T00:16:13.654Z,19.55
2018-05-10T00:18:41.259Z,20.92
2018-05-10T00:21:08.857Z,18.03
2018-05-10T00:23:37.579Z,22.80
2018-05-10T00:26:06.057Z,20.85
2018-05-10T00:28:33.640Z,17.67
2018-05-10T00:31:01.251Z,21.07
2018-05-10T00:33:28.850Z,18.50
2018-05-10T00:35:56.467Z,20.90
2018-05-10T00:38:24.857Z,24.85
2018-05-10T00:40:52.480Z,22.77
2018-05-10T00:43:20.215Z,20.35
2018-05-10T00:45:48.136Z,23.23
2018-05-10T00:48:15.845Z,20.50
2018-05-10T00:50:43.486Z,21.92
2018-05-10T00:53:11.081Z,19.73
2018-05-10T00:55:38.661Z,25.50
2018-05-10T00:58:06.253Z,22.17
2018-05-10T01:00:33.825Z,29.10
2018-05-10T01:03:01.422Z,25.73
2018-05-10T01:05:29.767Z,28.23
2018-05-10T01:07:57.409Z,24.30
2018-05-10T01:10:25.072Z,21.45
2018-05-10T01:12:52.816Z,17.10
2018-05-10T01:15:20.912Z,21.42
2018-05-10T01:17:49.170Z,19.58
2018-05-10T01:20:17.066Z,19.05
2018-05-10T01:22:44.762Z,21.52
2018-05-10T01:25:12.416Z,20.62
2018-05-10T01:27:39.986Z,29.33
2018-05-10T01:30:07.588Z,25.33
2018-05-10T01:32:35.922Z,19.12
2018-05-10T01:35:15.482Z,22.45
2018-05-10T01:37:43.179Z,23.27
2018-05-10T01:40:10.775Z,25.88
2018-05-10T01:42:40.175Z,22.83
2018-05-10T01:45:07.770Z,24.08
2018-05-10T01:47:36.191Z,24.70
2018-05-10T01:50:03.783Z,18.87
2018-05-10T01:52:31.366Z,22.17
2018-05-10T01:54:58.963Z,17.50
2018-05-10T01:57:27.360Z,18.20
2018-05-10T01:59:55.102Z,20.60
2018-05-10T02:02:22.742Z,21.20
2018-05-10T02:04:50.583Z,24.02
2018-05-10T02:07:19.098Z,18.83
2018-05-10T02:09:46.878Z,18.95
2018-05-10T02:12:14.566Z,20.95
2018-05-10T02:14:42.209Z,21.80
2018-05-10T02:17:09.757Z,19.70
2018-05-10T02:19:37.326Z,18.52
2018-05-10T02:22:04.957Z,20.05
2018-05-10T02:24:32.522Z,22.80
2018-05-10T02:27:00.142Z,26.75
2018-05-10T02:29:27.746Z,21.87
2018-05-10T02:31:56.208Z,18.25
2018-05-10T02:34:23.870Z,21.52
2018-05-10T02:36:51.550Z,20.20
2018-05-10T02:39:19.613Z,22.62
2018-05-10T02:41:47.397Z,25.25
2018-05-10T02:44:15.022Z,18.60
2018-05-10T02:46:43.376Z,19.20
2018-05-10T02:49:10.966Z,20.55
2018-05-10T02:51:38.543Z,17.83
2018-05-10T02:54:06.135Z,15.30
2018-05-10T02:56:34.471Z,20.23
2018-05-10T02:59:02.072Z,26.58
2018-05-10T03:01:29.647Z,19.83
2018-05-10T03:03:57.276Z,17.42
2018-05-10T03:06:24.930Z,18.37
2018-05-10T03:08:52.588Z,24.77
2018-05-10T03:11:21.059Z,22.58
2018-05-10T03:13:49.097Z,15.38
2018-05-10T03:16:16.986Z,25.25
2018-05-10T03:18:44.646Z,18.27
2018-05-10T03:21:12.249Z,20.30
2018-05-10T03:23:39.821Z,27.15
2018-05-10T03:26:07.414Z,21.12
2018-05-10T03:28:34.990Z,22.70
2018-05-10T03:31:02.583Z,25.10
2018-05-10T03:33:30.934Z,23.42
2018-05-10T03:35:59.285Z,20.35
2018-05-10T03:38:26.895Z,17.95
2018-05-10T03:40:54.548Z,21.50
2018-05-10T03:43:22.170Z,27.52
2018-05-10T03:48:24.242Z,26.40
2018-05-10T03:50:51.920Z,22.75
2018-05-10T03:53:19.573Z,23.87
2018-05-10T03:55:47.223Z,32.70
2018-05-10T03:58:14.831Z,28.60
2018-05-10T04:00:42.451Z,40.65
2018-05-10T04:06:22.629Z,22.05
2018-05-10T04:09:02.126Z,18.05
2018-05-10T04:11:30.482Z,22.52
2018-05-10T04:13:58.176Z,22.00
2018-05-10T04:16:25.805Z,22.80
2018-05-10T04:18:53.480Z,26.87
2018-05-10T04:21:21.917Z,23.75
2018-05-10T04:23:50.344Z,21.50
2018-05-10T04:26:18.157Z,21.52
2018-05-10T04:28:45.770Z,23.25
2018-05-10T04:31:13.365Z,23.50
2018-05-10T04:33:40.964Z,23.90
2018-05-10T04:36:08.533Z,25.83
2018-05-10T04:38:36.118Z,21.65
2018-05-10T04:41:04.461Z,27.77
2018-05-10T04:43:32.822Z,26.30
2018-05-10T04:46:00.398Z,23.70
2018-05-10T04:48:28.087Z,29.33
2018-05-10T04:50:55.756Z,22.60
2018-05-10T04:53:24.299Z,23.30
2018-05-10T04:55:52.031Z,28.37
2018-05-10T04:58:21.019Z,24.93
2018-05-10T05:00:50.547Z,23.80
2018-05-10T05:03:19.594Z,33.60
2018-05-10T05:05:48.202Z,28.67
2018-05-10T05:08:15.889Z,29.90
2018-05-10T05:10:43.661Z,22.83
2018-05-10T05:13:11.826Z,27.60
2018-05-10T05:15:39.442Z,28.83
2018-05-10T05:18:07.009Z,20.43
2018-05-10T05:20:34.597Z,31.67
2018-05-10T05:23:02.437Z,26.70
2018-05-10T05:25:30.036Z,26.43
2018-05-10T05:27:58.013Z,24.03
2018-05-10T05:30:25.962Z,32.87
2018-05-10T05:32:55.269Z,41.23
2018-05-10T05:35:23.031Z,32.07
2018-05-10T05:37:51.369Z,27.07
2018-05-10T05:40:18.955Z,25.00
2018-05-10T05:42:46.585Z,27.03
2018-05-10T05:45:14.170Z,24.40
2018-05-10T05:47:41.744Z,26.83
2018-05-10T05:50:09.554Z,23.73
2018-05-10T05:52:37.555Z,22.83
2018-05-10T05:55:05.357Z,29.93
2018-05-10T05:57:33.935Z,21.80
2018-05-10T06:00:02.273Z,20.80
2018-05-10T06:02:31.179Z,29.67
2018-05-10T06:04:59.004Z,21.50
2018-05-10T06:07:26.667Z,20.57
2018-05-10T06:09:54.345Z,32.43
2018-05-10T06:12:23.178Z,22.20
2018-05-10T06:14:51.920Z,23.23
2018-05-10T06:17:19.909Z,23.00
2018-05-10T06:19:47.979Z,23.93
2018-05-10T06:22:15.573Z,18.80
2018-05-10T06:24:43.151Z,23.90
2018-05-10T06:27:10.742Z,16.50
2018-05-10T06:29:39.078Z,29.60
2018-05-10T06:32:06.836Z,25.37
2018-05-10T06:34:34.446Z,21.90
2018-05-10T06:37:02.082Z,23.67
2018-05-10T06:39:30.143Z,22.63
2018-05-10T06:41:57.928Z,28.40
2018-05-10T06:44:28.217Z,18.43
2018-05-10T06:46:56.279Z,23.60
2018-05-10T06:49:24.318Z,25.20
2018-05-10T06:51:52.850Z,27.17
2018-05-10T06:54:20.717Z,21.93
2018-05-10T06:56:48.381Z,39.53
2018-05-10T06:59:16.015Z,22.80
2018-05-10T07:01:43.760Z,26.33
2018-05-10T07:04:11.541Z,19.93
2018-05-10T07:06:39.222Z,21.30
2018-05-10T07:09:07.124Z,22.63
2018-05-10T07:11:35.646Z,22.47
2018-05-10T07:14:04.057Z,24.03
2018-05-10T07:16:32.157Z,23.57
2018-05-10T07:18:59.718Z,17.90
2018-05-10T07:21:30.121Z,23.23
2018-05-10T07:23:58.830Z,21.93
2018-05-10T07:26:26.481Z,31.50
2018-05-10T07:28:54.050Z,28.63
2018-05-10T07:31:21.650Z,23.53
2018-05-10T07:33:50.026Z,20.27
2018-05-10T07:36:18.046Z,28.30
2018-05-10T07:38:45.712Z,26.97
2018-05-10T07:41:13.381Z,25.63
2018-05-10T07:43:42.381Z,23.10
2018-05-10T07:46:10.135Z,24.37
2018-05-10T07:48:37.854Z,21.03
2018-05-10T07:51:06.115Z,21.13
2018-05-10T07:53:34.624Z,21.13
2018-05-10T07:56:02.663Z,22.17
2018-05-10T07:58:30.255Z,24.13
2018-05-10T08:00:57.842Z,27.00
2018-05-10T08:03:25.406Z,21.53
2018-05-10T08:05:52.965Z,18.73
2018-05-10T08:08:20.574Z,16.00
2018-05-10T08:10:49.022Z,18.17
2018-05-10T08:13:16.727Z,22.80
2018-05-10T08:15:45.190Z,16.53
2018-05-10T08:18:12.880Z,22.20
2018-05-10T08:20:41.611Z,17.97
2018-05-10T08:23:09.536Z,27.33
2018-05-10T08:25:37.563Z,16.17
2018-05-10T08:28:05.208Z,17.63
2018-05-10T08:30:32.785Z,22.93
2018-05-10T08:33:00.357Z,15.50
2018-05-10T08:35:27.921Z,17.80
2018-05-10T08:37:55.517Z,10.23
2018-05-10T08:40:23.077Z,19.80
2018-05-10T08:42:50.647Z,20.47
2018-05-10T08:45:18.271Z,22.27
2018-05-10T08:47:45.889Z,40.77
2018-05-10T08:50:15.521Z,17.67
2018-05-10T08:52:43.171Z,20.17
2018-05-10T08:55:11.321Z,11.60
2018-05-10T08:57:39.118Z,16.60
2018-05-10T09:00:07.650Z,16.50
2018-05-10T09:02:35.292Z,22.33
2018-05-10T09:05:03.006Z,14.93
2018-05-10T09:07:30.598Z,16.10
2018-05-10T09:09:58.949Z,14.50
2018-05-10T09:12:26.519Z,18.57
2018-05-10T09:14:54.105Z,21.93
2018-05-10T09:17:21.674Z,22.87
2018-05-10T09:19:49.294Z,16.60
2018-05-10T09:22:17.872Z,10.67
2018-05-10T09:24:45.603Z,16.90
2018-05-10T09:27:13.256Z,10.93
2018-05-10T09:29:41.598Z,15.00
2018-05-10T09:32:09.581Z,22.17
2018-05-10T09:34:37.717Z,20.83
2018-05-10T09:37:10.070Z,13.40
2018-05-10T09:39:37.916Z,18.13
2018-05-10T09:42:05.523Z,25.47
2018-05-10T09:44:33.166Z,15.60
2018-05-10T09:47:00.753Z,16.07
2018-05-10T09:49:28.322Z,19.23
2018-05-10T09:51:55.897Z,16.87
2018-05-10T09:54:23.458Z,15.13
2018-05-10T09:56:51.038Z,22.70
2018-05-10T09:59:18.599Z,13.93
2018-05-10T10:01:46.262Z,20.50
2018-05-10T10:04:13.967Z,15.30
2018-05-10T10:06:42.416Z,12.57
2018-05-10T10:09:10.236Z,19.07
2018-05-10T10:11:38.900Z,19.03
2018-05-10T10:14:07.678Z,18.80
2018-05-10T10:16:36.454Z,19.20
2018-05-10T10:19:04.098Z,23.20
2018-05-10T10:21:31.667Z,21.13
2018-05-10T10:23:59.251Z,11.73
2018-05-10T10:26:26.813Z,16.53
2018-05-10T10:28:54.400Z,13.57
2018-05-10T10:31:21.956Z,17.60
2018-05-10T10:33:49.542Z,11.57
2018-05-10T10:36:17.150Z,14.47
2018-05-10T10:38:44.786Z,20.10
2018-05-10T10:41:13.190Z,17.10
2018-05-10T10:43:41.299Z,12.57
2018-05-10T10:46:09.302Z,13.63
2018-05-10T10:48:37.049Z,16.80
2018-05-10T10:51:04.654Z,10.77
2018-05-10T10:53:32.218Z,13.20
2018-05-10T10:55:59.803Z,11.07
2018-05-10T10:58:27.364Z,10.77
2018-05-10T11:00:54.949Z,12.00
2018-05-10T11:03:22.607Z,11.40
2018-05-10T11:05:50.186Z,13.53
2018-05-10T11:08:17.778Z,12.47
2018-05-10T11:10:48.614Z,14.63
2018-05-10T11:13:16.226Z,12.23
2018-05-10T11:15:43.850Z,13.87
2018-05-10T11:18:11.569Z,12.20
2018-05-10T11:20:40.571Z,11.90
2018-05-10T11:23:08.583Z,10.67
2018-05-10T11:25:37.222Z,14.00
2018-05-10T11:28:04.793Z,12.67
2018-05-10T11:30:32.373Z,8.73
2018-05-10T11:33:00.026Z,12.47
2018-05-10T11:35:27.554Z,19.60
2018-05-10T11:37:55.109Z,14.20
2018-05-10T11:40:22.707Z,7.10
2018-05-10T11:42:50.268Z,14.37
2018-05-10T11:45:18.665Z,9.53
2018-05-10T11:47:47.101Z,7.93
2018-05-10T11:50:14.798Z,12.63
2018-05-10T11:52:42.572Z,18.70
2018-05-10T11:55:10.431Z,11.37
2018-05-10T11:57:38.306Z,17.80
2018-05-10T12:00:06.506Z,12.90
2018-05-10T12:02:34.157Z,13.07
2018-05-10T12:05:02.466Z,8.33
2018-05-10T12:07:30.060Z,12.17
2018-05-10T12:09:57.623Z,11.83
2018-05-10T12:12:25.202Z,15.60
2018-05-10T12:14:52.766Z,11.03
2018-05-10T12:17:20.350Z,14.80
2018-05-10T12:19:47.945Z,9.43
2018-05-10T12:22:15.615Z,7.90
2018-05-10T12:24:43.994Z,11.30
2018-05-10T12:27:12.704Z,12.13
2018-05-10T12:29:41.236Z,9.77
2018-05-10T12:32:09.101Z,13.50
2018-05-10T12:34:39.542Z,14.63
2018-05-10T12:37:07.475Z,7.50
2018-05-10T12:39:35.077Z,12.13
2018-05-10T12:42:02.638Z,8.63
2018-05-10T12:44:30.227Z,11.63
2018-05-10T12:46:57.789Z,11.50
2018-05-10T12:49:25.369Z,10.00
2018-05-10T12:51:52.926Z,9.23
2018-05-10T12:54:20.506Z,10.87
2018-05-10T12:56:48.110Z,11.50
2018-05-10T12:59:16.597Z,9.43
2018-05-10T13:01:44.343Z,12.40
2018-05-10T13:04:11.989Z,14.63
2018-05-10T13:06:39.944Z,7.50
2018-05-10T13:09:07.821Z,13.17
2018-05-10T13:11:35.453Z,9.00
2018-05-10T13:14:03.122Z,12.07
2018-05-10T13:16:30.673Z,9.33
2018-05-10T13:18:58.258Z,16.00
2018-05-10T13:21:25.827Z,9.67
2018-05-10T13:23:53.412Z,15.50
2018-05-10T13:26:21.001Z,9.93
2018-05-10T13:28:48.603Z,10.33
2018-05-10T13:31:16.248Z,11.30
2018-05-10T13:33:44.628Z,13.73
2018-05-10T13:36:12.290Z,21.70
2018-05-10T13:38:40.549Z,12.70
2018-05-10T13:41:08.441Z,10.77
2018-05-10T13:43:36.289Z,15.00
2018-05-10T13:46:04.128Z,8.83
2018-05-10T13:48:32.260Z,10.03
2018-05-10T13:50:59.853Z,12.50
2018-05-10T13:53:27.412Z,9.40
2018-05-10T13:55:54.986Z,8.57
2018-05-10T13:58:22.546Z,8.50
2018-05-10T14:00:50.133Z,10.10
2018-05-10T14:03:17.737Z,10.40
2018-05-10T14:05:45.416Z,8.43
2018-05-10T14:08:13.376Z,10.83
2018-05-10T14:10:41.449Z,12.23
2018-05-10T14:13:09.442Z,9.93
2018-05-10T14:15:37.220Z,9.90
2018-05-10T14:18:04.806Z,12.00
2018-05-10T14:20:32.362Z,9.50
2018-05-10T14:22:59.950Z,9.20
2018-05-10T14:25:28.318Z,11.87
2018-05-10T14:27:55.890Z,11.30
2018-05-10T14:30:23.612Z,19.50
2018-05-10T14:32:51.220Z,10.17
2018-05-10T14:35:19.562Z,10.60
2018-05-10T14:37:47.208Z,15.50
2018-05-10T14:40:14.869Z,13.90
2018-05-10T14:42:42.542Z,11.00
2018-05-10T14:45:10.137Z,13.07
2018-05-10T14:47:37.814Z,8.57
2018-05-10T14:50:06.044Z,12.10
2018-05-10T14:52:34.394Z,11.80
2018-05-10T14:55:02.273Z,7.43
2018-05-10T14:57:30.698Z,13.83
2018-05-10T14:59:58.287Z,13.30
2018-05-10T15:02:26.614Z,8.67
2018-05-10T15:04:54.204Z,9.97
2018-05-10T15:07:21.861Z,10.83
2018-05-10T15:09:49.545Z,8.83
2018-05-10T15:12:17.146Z,7.13
2018-05-10T15:14:45.638Z,14.40
2018-05-10T15:17:14.104Z,10.00
2018-05-10T15:19:42.251Z,9.87
2018-05-10T15:22:10.400Z,11.70
2018-05-10T15:24:38.100Z,14.40
2018-05-10T15:27:05.756Z,9.03
2018-05-10T15:29:33.326Z,14.67
2018-05-10T15:32:01.862Z,13.50
2018-05-10T15:34:30.189Z,5.30
2018-05-10T15:36:57.770Z,10.33
2018-05-10T15:39:25.335Z,8.10
2018-05-10T15:41:52.915Z,8.07
2018-05-10T15:44:20.482Z,6.27
2018-05-10T15:46:48.129Z,7.90
2018-05-10T15:49:15.729Z,6.57
2018-05-10T15:51:43.445Z,7.00
2018-05-10T15:54:12.039Z,8.63
2018-05-10T15:56:39.652Z,10.87
2018-05-10T15:59:07.568Z,8.80
2018-05-10T16:01:35.263Z,7.10
2018-05-10T16:04:02.909Z,11.60
2018-05-10T16:06:30.470Z,9.87
2018-05-10T16:08:58.045Z,8.83
2018-05-10T16:11:25.602Z,8.57
2018-05-10T16:13:53.204Z,6.70
2018-05-10T16:16:20.774Z,9.43
2018-05-10T16:18:48.451Z,9.50
2018-05-10T16:21:16.020Z,8.73
2018-05-10T16:23:44.913Z,8.80
2018-05-10T16:26:13.382Z,13.53
2018-05-10T16:28:41.207Z,7.70
2018-05-10T16:31:08.964Z,19.87
2018-05-10T16:33:37.517Z,8.03
2018-05-10T16:36:05.162Z,9.03
2018-05-10T16:38:32.746Z,12.20
2018-05-10T16:41:00.310Z,17.57
2018-05-10T16:43:27.898Z,9.03
2018-05-10T16:45:56.241Z,6.73
2018-05-10T16:48:26.562Z,3.73
2018-05-10T16:50:54.129Z,11.10
2018-05-10T16:53:21.770Z,5.90
2018-05-10T16:55:49.318Z,4.20
2018-05-10T16:58:16.940Z,4.90
2018-05-10T17:00:44.593Z,5.27
2018-05-10T17:03:13.125Z,3.30
2018-05-10T17:05:41.145Z,8.70
2018-05-10T17:08:10.198Z,4.83
2018-05-10T17:10:38.539Z,2.60
2018-05-10T17:13:07.418Z,4.27
2018-05-10T17:15:35.141Z,2.90
2018-05-10T17:18:03.326Z,5.13
2018-05-10T17:20:30.893Z,8.80
2018-05-10T17:22:58.454Z,6.87
2018-05-10T17:25:26.033Z,3.50
2018-05-10T17:27:53.590Z,4.97
2018-05-10T17:30:21.170Z,3.63
2018-05-10T17:32:48.789Z,3.87
2018-05-10T17:35:16.466Z,4.57
2018-05-10T17:37:44.166Z,3.93
2018-05-10T17:40:12.022Z,3.77
2018-05-10T17:42:40.248Z,6.97
2018-05-10T17:45:09.491Z,5.00
2018-05-10T17:47:37.343Z,5.93
2018-05-10T17:50:05.751Z,3.50
2018-05-10T17:52:34.349Z,4.30
2018-05-10T17:55:01.958Z,5.00
2018-05-10T17:57:29.535Z,4.10
2018-05-10T17:59:57.121Z,5.70
2018-05-10T18:02:24.687Z,6.90
2018-05-10T18:04:52.511Z,4.93
2018-05-10T18:07:20.954Z,8.27
2018-05-10T18:09:48.799Z,5.70
2018-05-10T18:12:17.165Z,7.10
2018-05-10T18:14:44.812Z,6.23
2018-05-10T18:17:13.138Z,5.07
2018-05-10T18:19:41.649Z,8.67
2018-05-10T18:22:10.256Z,6.57
2018-05-10T18:24:38.131Z,6.07
2018-05-10T18:27:05.817Z,6.07
2018-05-10T18:29:34.243Z,12.53
2018-05-10T18:32:01.829Z,10.77
2018-05-10T18:34:29.390Z,9.23
2018-05-10T18:36:56.974Z,10.37
2018-05-10T18:39:24.556Z,10.90
2018-05-10T18:41:52.149Z,11.10
2018-05-10T18:44:19.769Z,13.73
2018-05-10T18:46:47.387Z,16.93
2018-05-10T18:49:16.451Z,14.00
2018-05-10T18:51:44.098Z,15.03
2018-05-10T18:54:11.828Z,14.10
2018-05-10T18:56:39.970Z,11.50
2018-05-10T18:59:07.848Z,14.70
2018-05-10T19:01:35.567Z,14.00
2018-05-10T19:04:03.942Z,15.23
2018-05-10T19:06:31.522Z,21.70
2018-05-10T19:08:59.130Z,13.60
2018-05-10T19:11:26.713Z,13.30
2018-05-10T19:13:55.042Z,19.80
2018-05-10T19:16:22.621Z,12.63
2018-05-10T19:18:50.184Z,9.83
2018-05-10T19:21:17.799Z,8.80
2018-05-10T19:23:46.358Z,12.10
2018-05-10T19:26:14.354Z,9.80
2018-05-10T19:28:42.047Z,9.47
2018-05-10T19:31:10.031Z,8.23
2018-05-10T19:33:37.861Z,14.93
2018-05-10T19:36:05.526Z,9.37
2018-05-10T19:38:34.039Z,10.13
2018-05-10T19:41:01.602Z,9.30
2018-05-10T19:43:29.194Z,10.43
2018-05-10T19:45:56.758Z,12.20
2018-05-10T19:48:24.343Z,16.93
2018-05-10T19:50:51.901Z,11.13
2018-05-10T19:53:19.484Z,18.43
2018-05-10T19:55:47.128Z,19.20
2018-05-10T19:58:14.809Z,25.73
2018-05-10T20:00:42.534Z,20.93
2018-05-10T20:03:11.539Z,29.03
2018-05-10T20:05:39.377Z,35.23
2018-05-10T20:08:07.382Z,34.37
2018-05-10T20:10:35.974Z,33.70
2018-05-10T20:13:03.906Z,38.83
2018-05-10T20:15:32.256Z,41.40
2018-05-10T20:18:00.397Z,40.87
2018-05-10T20:20:28.850Z,42.53
2018-05-10T20:22:57.874Z,38.83
2018-05-10T20:25:25.529Z,48.30
2018-05-10T20:27:53.059Z,45.97
2018-05-10T20:30:20.647Z,41.90
2018-05-10T20:32:48.250Z,37.20
2018-05-10T20:35:16.786Z,37.90
2018-05-10T20:37:44.418Z,37.80
2018-05-10T20:40:12.921Z,38.37
2018-05-10T20:42:41.602Z,35.67
2018-05-10T20:45:10.003Z,34.97
2018-05-10T20:47:37.566Z,36.60
2018-05-10T20:50:07.595Z,37.87
2018-05-10T20:52:35.161Z,30.37
2018-05-10T20:55:02.825Z,30.70
2018-05-10T20:57:30.405Z,37.70
2018-05-10T20:59:58.122Z,32.40
2018-05-10T21:02:26.490Z,28.60
2018-05-10T21:04:54.113Z,25.90
2018-05-10T21:07:21.808Z,28.73
2018-05-10T21:09:49.476Z,25.47
2018-05-10T21:12:28.845Z,34.20
2018-05-10T21:14:56.418Z,28.00
2018-05-10T21:17:24.046Z,28.17
2018-05-10T21:19:52.390Z,31.43
2018-05-10T21:22:19.996Z,26.17
2018-05-10T21:24:48.394Z,25.73
2018-05-10T21:27:16.058Z,26.27
2018-05-10T21:29:45.852Z,20.77
2018-05-10T21:32:14.232Z,20.53
2018-05-10T21:34:41.814Z,23.90
2018-05-10T21:37:09.485Z,25.17
2018-05-10T21:39:37.058Z,20.83
2018-05-10T21:42:04.658Z,27.30
2018-05-10T21:44:32.229Z,22.07
2018-05-10T21:46:59.794Z,19.10
2018-05-10T21:49:39.359Z,24.75
2018-05-10T21:52:06.926Z,20.70
2018-05-10T21:54:35.303Z,28.83
2018-05-10T21:57:03.634Z,22.23
2018-05-10T21:59:31.986Z,19.40
2018-05-10T22:01:59.554Z,25.20
2018-05-10T22:04:27.163Z,25.30
2018-05-10T22:06:54.778Z,24.87
2018-05-10T22:09:22.413Z,31.73
2018-05-10T22:11:50.087Z,38.07
2018-05-10T22:14:17.758Z,30.77
2018-05-10T22:16:45.669Z,35.72
2018-05-10T22:19:13.317Z,39.58
2018-05-10T22:21:40.886Z,39.67
2018-05-10T22:24:09.226Z,52.08
2018-05-10T22:26:36.889Z,40.15
2018-05-10T22:29:04.508Z,41.63
2018-05-10T22:31:32.934Z,46.55
2018-05-10T22:34:00.594Z,53.20
2018-05-10T22:36:28.414Z,43.22
2018-05-10T22:38:58.220Z,50.50
2018-05-10T22:41:25.857Z,43.92
2018-05-10T22:43:54.553Z,36.65
2018-05-10T22:46:22.200Z,37.35
2018-05-10T22:48:49.774Z,39.20
2018-05-10T22:51:17.366Z,42.38
2018-05-10T22:53:44.975Z,47.58
2018-05-10T22:56:12.561Z,33.38
2018-05-10T22:58:40.132Z,51.35
2018-05-10T23:01:07.738Z,50.55
2018-05-10T23:03:35.348Z,44.22
2018-05-10T23:06:03.751Z,33.93
2018-05-10T23:08:31.830Z,42.63
2018-05-10T23:10:59.508Z,44.25
2018-05-10T23:13:27.184Z,44.73
2018-05-10T23:15:54.831Z,45.27
2018-05-10T23:18:23.199Z,41.07
2018-05-10T23:20:50.770Z,48.43
2018-05-10T23:23:18.345Z,39.17
2018-05-10T23:25:45.913Z,37.83
2018-05-10T23:28:13.506Z,39.43
2018-05-10T23:30:41.162Z,43.15
2018-05-10T23:33:09.459Z,47.57
2018-05-10T23:35:37.124Z,52.78
2018-05-10T23:38:04.742Z,46.97
2018-05-10T23:40:33.160Z,51.55
2018-05-10T23:43:00.806Z,53.35
2018-05-10T23:45:29.147Z,52.90
2018-05-10T23:47:56.713Z,55.97
2018-05-10T23:50:24.302Z,56.47
2018-05-10T23:52:51.875Z,52.40
2018-05-10T23:55:19.474Z,54.20
2018-05-10T23:57:47.813Z,53.15
